Time;durP1;ratioP1;P1;durP2;ratioP2;P2;SDS_P1;SDS_P2;PMS_P1;PMS_P2;Temp;Humidity;BMP_temperature;BMP_pressure;BME280_temperature;BME280_humidity;BME280_pressure;Samples;Min_cycle;Max_cycle;Signal;HPM_P1;HPM_P2
2021/03/09 00:00:12;;;;;;;100.93;38.13;;;3.60;99.90;;;4.35;93.50;101009.34;5011599;28;20044;-79
2021/03/09 00:02:38;;;;;;;97.75;39.45;;;3.60;99.90;;;4.35;93.72;101010.16;5011744;28;20056;-76
2021/03/09 00:05:06;;;;;;;90.20;36.72;;;3.60;99.90;;;4.41;93.45;101014.44;5011818;28;20037;-79
2021/03/09 00:07:32;;;;;;;93.18;34.88;;;3.60;99.90;;;4.41;93.16;101008.91;5012966;28;20030;-81
2021/03/09 00:09:58;;;;;;;92.00;34.60;;;3.60;99.90;;;4.41;93.08;101014.44;5032017;28;20034;-80
2021/03/09 00:12:24;;;;;;;86.72;34.78;;;3.60;99.90;;;4.39;93.14;101013.13;5040640;28;20026;-81
2021/03/09 00:14:50;;;;;;;93.75;34.78;;;3.60;99.90;;;4.36;93.36;101011.81;5014079;28;20029;-77
2021/03/09 00:17:16;;;;;;;83.50;34.42;;;3.60;99.90;;;4.30;93.82;101012.22;5010981;28;20121;-80
2021/03/09 00:19:42;;;;;;;85.97;33.95;;;3.50;99.90;;;4.28;93.69;101006.97;5027741;28;20049;-80
2021/03/09 00:22:08;;;;;;;96.57;37.55;;;3.50;99.90;;;4.30;93.40;101009.44;5012717;28;20030;-80
2021/03/09 00:24:34;;;;;;;85.35;35.00;;;3.50;99.90;;;4.33;93.40;101012.41;5012523;28;20053;-79
2021/03/09 00:26:59;;;;;;;87.95;35.83;;;3.60;99.90;;;4.37;93.37;101010.66;5011652;28;20030;-80
2021/03/09 00:29:25;;;;;;;107.30;39.72;;;3.60;99.90;;;4.30;93.29;101001.97;5027809;28;20034;-79
2021/03/09 00:31:51;;;;;;;114.85;40.08;;;3.60;99.90;;;4.37;91.93;101007.06;5012530;28;20390;-80
2021/03/09 00:34:17;;;;;;;101.15;37.70;;;3.60;99.90;;;4.47;91.16;101013.22;5028094;28;20030;-80
2021/03/09 00:36:43;;;;;;;104.55;38.40;;;3.70;99.90;;;4.46;89.90;101011.59;5027555;28;20124;-79
2021/03/09 00:39:09;;;;;;;97.22;38.00;;;3.70;99.90;;;4.53;89.70;101006.44;5011312;28;20112;-78
2021/03/09 00:41:35;;;;;;;96.45;37.47;;;3.80;99.90;;;4.50;89.82;100996.00;5027820;28;20121;-81
2021/03/09 00:44:00;;;;;;;103.13;38.53;;;3.80;99.90;;;4.55;89.15;101003.38;5011141;28;20140;-79
2021/03/09 00:46:26;;;;;;;97.75;36.83;;;3.90;99.90;;;4.54;88.65;100991.50;5026829;28;20153;-78
2021/03/09 00:48:52;;;;;;;107.18;39.10;;;3.90;99.90;;;4.60;89.01;100990.25;5012438;28;20042;-80
2021/03/09 00:51:18;;;;;;;100.55;38.03;;;3.90;99.90;;;4.57;89.37;100993.63;5027279;28;20041;-79
2021/03/09 00:53:44;;;;;;;101.07;37.97;;;3.90;99.90;;;4.56;89.25;100989.22;5027721;28;20041;-80
2021/03/09 00:56:09;;;;;;;96.30;37.40;;;3.90;99.90;;;4.61;89.14;100989.13;5012568;28;20400;-79
2021/03/09 00:58:35;;;;;;;91.88;37.97;;;3.90;99.90;;;4.64;89.14;100980.22;5010842;28;20109;-79
2021/03/09 01:01:01;;;;;;;93.55;35.80;;;3.90;99.90;;;4.68;89.28;100986.78;5027459;28;20393;-77
2021/03/09 01:03:27;;;;;;;97.72;38.25;;;3.90;99.90;;;4.63;89.61;100984.09;5028211;28;20044;-80
2021/03/09 01:05:53;;;;;;;102.18;37.88;;;3.90;99.90;;;4.47;89.50;100982.78;5030864;28;20461;-81
2021/03/09 01:08:19;;;;;;;94.30;37.08;;;3.90;99.90;;;4.46;90.08;100972.88;5031092;28;20306;-80
2021/03/09 01:10:45;;;;;;;104.03;38.90;;;3.90;99.90;;;4.55;89.32;100978.50;5015100;28;20033;-80
2021/03/09 01:13:11;;;;;;;97.68;37.72;;;3.90;99.90;;;4.57;89.53;100978.97;5014022;28;20026;-80
2021/03/09 01:15:37;;;;;;;99.40;37.83;;;3.90;99.90;;;4.55;89.12;100982.06;5013524;28;20121;-79
2021/03/09 01:18:04;;;;;;;105.00;38.33;;;3.90;99.90;;;4.57;89.54;100977.03;5013912;28;20061;-79
2021/03/09 01:20:30;;;;;;;91.82;35.25;;;3.90;99.90;;;4.64;88.41;100974.69;5014921;28;20477;-79
2021/03/09 01:22:56;;;;;;;95.18;38.20;;;3.90;99.90;;;4.54;88.27;100971.31;5013967;28;20034;-80
2021/03/09 01:25:22;;;;;;;103.78;39.38;;;3.90;99.90;;;4.57;88.66;100968.75;5014051;28;20030;-79
2021/03/09 01:27:48;;;;;;;93.47;38.47;;;3.90;99.90;;;4.58;89.04;100966.81;5014150;28;20096;-79
2021/03/09 01:30:18;;;;;;;107.65;41.38;;;3.90;99.90;;;4.52;89.53;100960.56;5014392;28;20062;-79
2021/03/09 01:32:44;;;;;;;95.10;35.95;;;3.90;99.90;;;4.57;89.09;100968.75;5013451;28;20030;-79
2021/03/09 01:35:11;;;;;;;101.40;39.50;;;3.90;99.90;;;4.52;89.55;100962.50;5014933;28;20045;-80
2021/03/09 01:37:37;;;;;;;98.72;36.58;;;3.90;99.90;;;4.55;89.73;100975.72;5013449;28;20029;-79
2021/03/09 01:40:09;;;;;;;94.43;36.55;;;3.90;99.90;;;4.61;89.17;100961.47;5013242;28;20092;-79
2021/03/09 01:42:36;;;;;;;101.20;38.17;;;3.90;99.90;;;4.65;89.42;100968.03;5013223;28;20064;-79
2021/03/09 01:45:05;;;;;;;101.35;40.22;;;3.90;99.90;;;4.64;89.41;100960.03;5014683;28;20520;-80
2021/03/09 01:47:33;;;;;;;96.30;35.28;;;3.90;99.90;;;4.64;90.05;100965.56;5013021;28;20041;-79
2021/03/09 01:50:00;;;;;;;98.47;37.50;;;3.90;99.90;;;4.52;91.02;100968.88;5013166;28;20486;-79
2021/03/09 01:52:27;;;;;;;98.72;36.92;;;3.90;99.90;;;4.41;91.79;100959.13;5015083;28;20037;-82
2021/03/09 01:54:56;;;;;;;97.10;38.80;;;3.80;99.90;;;4.54;91.63;100946.41;5015232;28;20026;-82
2021/03/09 01:57:22;;;;;;;98.82;39.85;;;3.80;99.90;;;4.51;90.78;100950.63;5014282;28;20057;-79
2021/03/09 01:59:52;;;;;;;93.18;38.65;;;3.90;99.90;;;4.53;91.33;100950.28;5014048;28;20398;-79
2021/03/09 02:02:19;;;;;;;103.00;41.53;;;3.90;99.90;;;4.51;91.06;100936.78;5014095;28;20080;-80
2021/03/09 02:04:45;;;;;;;95.13;39.95;;;3.90;99.90;;;4.54;91.18;100936.16;5014604;28;20041;-80
2021/03/09 02:07:10;;;;;;;98.95;40.83;;;3.90;99.90;;;4.52;91.38;100935.66;5013723;28;20030;-78
2021/03/09 02:09:37;;;;;;;100.28;39.38;;;3.90;99.90;;;4.47;91.51;100930.25;5015210;28;20045;-78
2021/03/09 02:12:46;;;;;;;106.05;40.42;;;3.80;99.90;;;4.49;91.93;100932.72;5015725;28;20037;-80
2021/03/09 02:15:28;;;;;;;103.38;38.90;;;3.90;99.90;;;4.52;91.60;100921.84;5014119;28;20540;-78
2021/03/09 02:19:10;;;;;;;104.43;41.75;;;3.90;99.90;;;4.49;91.97;100919.69;5015247;28;20371;-78
2021/03/09 02:22:23;;;;;;;102.40;38.70;;;3.80;99.90;;;4.41;92.61;100909.34;5030750;28;20036;-78
2021/03/09 02:25:32;;;;;;;108.20;41.60;;;3.80;99.90;;;4.42;92.38;100911.00;5015485;28;20592;-80
2021/03/09 02:28:33;;;;;;;107.68;39.92;;;3.80;99.90;;;4.40;92.95;100904.94;5020115;28;20034;-81
2021/03/09 02:31:00;;;;;;;100.95;39.90;;;3.80;99.90;;;4.38;93.51;100898.91;5040909;28;20033;-83
2021/03/09 02:33:39;;;;;;;104.07;42.47;;;3.80;99.90;;;4.48;93.15;100897.88;5043771;28;20105;-79
2021/03/09 02:36:23;;;;;;;102.50;41.63;;;3.80;99.90;;;4.44;93.42;100894.09;5014077;28;20042;-79
2021/03/09 02:38:58;;;;;;;108.53;44.10;;;3.80;99.90;;;4.47;93.18;100894.28;5013830;28;20453;-79
2021/03/09 02:41:28;;;;;;;106.57;41.25;;;3.80;99.90;;;4.46;93.31;100895.44;5029247;28;20053;-79
2021/03/09 02:43:57;;;;;;;114.75;43.80;;;3.80;99.90;;;4.41;94.06;100886.41;5028832;28;20136;-81
2021/03/09 02:46:34;;;;;;;111.95;45.03;;;3.80;99.90;;;4.36;94.01;100894.84;5013600;28;20135;-79
2021/03/09 02:49:01;;;;;;;110.43;41.03;;;3.70;99.90;;;4.33;93.83;100885.22;5014195;28;20029;-81
2021/03/09 02:51:32;;;;;;;104.90;42.10;;;3.70;99.90;;;4.44;93.88;100885.78;5030978;28;20030;-81
2021/03/09 02:54:03;;;;;;;109.88;42.55;;;3.70;99.90;;;4.31;94.87;100878.34;5015174;28;20030;-79
2021/03/09 02:56:29;;;;;;;110.95;46.92;;;3.70;99.90;;;4.22;95.54;100873.56;5014295;28;20111;-81
2021/03/09 02:58:58;;;;;;;116.57;47.15;;;3.70;99.90;;;4.32;95.09;100868.94;5012203;28;20389;-79
2021/03/09 03:01:28;;;;;;;113.15;45.42;;;3.70;99.90;;;4.27;95.22;100875.38;5028846;28;20057;-80
2021/03/09 03:03:56;;;;;;;111.60;43.85;;;3.70;99.90;;;4.34;94.68;100872.19;5028538;28;20034;-78
2021/03/09 03:06:28;;;;;;;103.32;45.22;;;3.70;99.90;;;4.32;94.79;100869.75;5013396;28;20029;-79
2021/03/09 03:08:57;;;;;;;114.28;46.28;;;3.70;99.90;;;4.36;94.36;100867.19;5028288;28;20042;-79
2021/03/09 03:11:24;;;;;;;101.15;43.72;;;3.70;99.90;;;4.40;94.34;100870.97;5013381;28;20037;-80
2021/03/09 03:13:55;;;;;;;94.13;39.78;;;3.70;99.90;;;4.36;93.91;100867.19;5011971;28;20040;-80
2021/03/09 03:16:27;;;;;;;100.75;44.22;;;3.70;99.90;;;4.22;94.90;100858.91;5012137;28;20028;-79
2021/03/09 03:18:57;;;;;;;97.55;41.60;;;3.70;99.90;;;4.32;94.07;100864.22;5011934;28;20026;-80
2021/03/09 03:21:27;;;;;;;92.13;40.08;;;3.70;99.90;;;4.38;94.12;100864.91;5012153;28;20033;-80
2021/03/09 03:24:00;;;;;;;107.13;44.78;;;3.70;99.90;;;4.41;94.06;100859.56;5012177;28;20112;-80
2021/03/09 03:26:28;;;;;;;100.25;44.78;;;3.70;99.90;;;4.30;94.50;100854.59;5012057;28;20030;-78
2021/03/09 03:28:56;;;;;;;104.93;46.03;;;3.70;99.90;;;4.23;94.92;100861.38;5013638;28;20029;-77
2021/03/09 03:31:23;;;;;;;106.40;44.88;;;3.70;99.90;;;4.30;94.98;100858.19;5012398;28;20453;-81
2021/03/09 03:33:49;;;;;;;100.82;45.58;;;3.70;99.90;;;4.34;94.70;100856.41;5012362;28;20097;-79
2021/03/09 03:36:17;;;;;;;108.78;45.67;;;3.70;99.90;;;4.32;95.10;100853.16;5012790;28;20029;-81
2021/03/09 03:38:43;;;;;;;98.40;41.75;;;3.70;99.90;;;4.34;94.09;100856.41;5012666;28;20037;-81
2021/03/09 03:41:12;;;;;;;89.78;39.35;;;3.70;99.90;;;4.30;94.05;100847.13;5014742;28;20481;-80
2021/03/09 03:43:39;;;;;;;97.10;41.63;;;3.70;99.90;;;4.25;93.85;100852.75;5013426;28;20478;-81
2021/03/09 03:46:06;;;;;;;98.60;42.10;;;3.60;99.90;;;4.18;94.96;100850.41;5013433;28;20033;-79
2021/03/09 03:48:36;;;;;;;94.57;42.55;;;3.60;99.90;;;4.22;94.44;100845.09;5012964;28;20497;-80
2021/03/09 03:51:11;;;;;;;96.10;42.95;;;3.60;99.90;;;4.15;94.60;100853.81;5012885;28;20041;-79
2021/03/09 03:54:23;;;;;;;96.70;41.58;;;3.60;99.90;;;4.13;94.11;100850.53;5013262;28;20029;-80
2021/03/09 03:57:15;;;;;;;103.70;41.88;;;3.60;99.90;;;4.14;94.46;100829.25;5013315;28;20120;-80
2021/03/09 03:59:48;;;;;;;89.72;40.33;;;3.60;99.90;;;4.22;93.90;100834.84;5012945;28;20033;-78
2021/03/09 04:02:16;;;;;;;88.47;39.88;;;3.60;99.90;;;4.16;94.45;100832.50;5011968;28;20049;-79
2021/03/09 04:04:47;;;;;;;95.60;41.22;;;3.60;99.90;;;4.19;94.32;100824.41;5011700;28;20043;-77
2021/03/09 04:07:19;;;;;;;96.38;41.50;;;3.50;99.90;;;4.25;93.80;100837.00;5012847;28;20026;-79
2021/03/09 04:09:52;;;;;;;101.00;42.13;;;3.60;99.90;;;4.15;94.59;100833.63;5012601;28;20041;-79
2021/03/09 04:12:22;;;;;;;98.15;41.03;;;3.60;99.90;;;4.10;94.62;100828.22;5011362;28;20026;-80
2021/03/09 04:14:49;;;;;;;94.82;44.08;;;3.50;99.90;;;4.18;94.68;100819.19;5012577;28;20026;-79
2021/03/09 04:17:19;;;;;;;93.75;40.97;;;3.50;99.90;;;4.14;94.31;100823.72;5027821;28;20026;-81
2021/03/09 04:19:47;;;;;;;92.60;41.55;;;3.50;99.90;;;4.14;94.67;100821.75;5012528;28;20398;-80
2021/03/09 04:22:17;;;;;;;96.07;39.83;;;3.50;99.90;;;4.07;94.28;100809.50;5028061;28;20033;-80
2021/03/09 04:24:46;;;;;;;98.13;40.17;;;3.50;99.90;;;4.04;95.01;100815.66;5027595;28;20394;-80
2021/03/09 04:27:22;;;;;;;96.65;41.08;;;3.50;99.90;;;4.06;94.84;100816.16;5012448;28;20026;-79
2021/03/09 04:30:00;;;;;;;88.47;40.47;;;3.50;99.90;;;4.04;94.73;100808.19;5012394;28;20037;-79
2021/03/09 04:32:27;;;;;;;100.80;41.30;;;3.50;99.90;;;4.01;95.52;100816.28;5012666;28;20030;-79
2021/03/09 04:34:55;;;;;;;98.78;42.58;;;3.50;99.90;;;3.98;95.41;100808.59;5012861;28;20032;-79
2021/03/09 04:37:22;;;;;;;98.07;43.63;;;3.50;99.90;;;4.07;94.89;100809.50;5028306;28;20033;-79
2021/03/09 04:39:50;;;;;;;94.93;41.85;;;3.40;99.90;;;4.03;95.41;100805.72;5014719;28;20029;-79
2021/03/09 04:42:16;;;;;;;89.32;40.28;;;3.40;99.90;;;4.06;95.04;100805.91;5031054;28;20032;-79
2021/03/09 04:44:42;;;;;;;105.60;43.22;;;3.40;99.90;;;4.09;94.94;100807.25;5030985;28;20032;-77
2021/03/09 04:47:09;;;;;;;91.15;40.90;;;3.40;99.90;;;4.04;95.01;100805.44;5031575;28;20084;-81
2021/03/09 04:49:36;;;;;;;102.78;42.45;;;3.40;99.90;;;4.02;95.37;100806.84;5026273;28;20037;-78
2021/03/09 04:52:04;;;;;;;101.35;43.85;;;3.40;99.90;;;4.01;95.82;100814.34;5037733;28;20030;-81
2021/03/09 04:54:34;;;;;;;101.55;43.38;;;3.40;99.90;;;4.11;95.32;100813.28;5019028;28;20037;-78
2021/03/09 04:57:00;;;;;;;103.45;44.22;;;3.40;99.90;;;4.07;95.45;100801.22;5016618;28;20037;-76
2021/03/09 04:59:26;;;;;;;97.50;43.45;;;3.40;99.90;;;4.06;95.36;100802.34;5031938;28;20129;-81
2021/03/09 05:01:52;;;;;;;94.65;42.33;;;3.40;99.90;;;4.11;95.29;100794.72;5016992;28;20057;-77
2021/03/09 05:04:18;;;;;;;105.50;43.80;;;3.40;99.90;;;4.11;95.58;100794.72;5017032;28;20037;-78
2021/03/09 05:06:47;;;;;;;106.55;45.05;;;3.40;99.90;;;4.05;95.63;100795.97;5016473;28;20079;-82
2021/03/09 05:09:13;;;;;;;108.20;44.78;;;3.40;99.90;;;3.96;96.36;100799.78;5016376;28;20383;-79
2021/03/09 05:11:39;;;;;;;117.63;45.67;;;3.40;99.90;;;3.84;97.05;100794.81;5018713;28;20041;-82
2021/03/09 05:14:05;;;;;;;101.55;44.67;;;3.40;99.90;;;3.96;96.69;100797.84;5014445;28;20149;-79
2021/03/09 05:16:30;;;;;;;110.95;47.67;;;3.50;99.90;;;4.03;96.52;100798.25;5015996;28;20458;-80
2021/03/09 05:18:56;;;;;;;104.22;46.08;;;3.40;99.90;;;4.05;96.22;100792.41;5016527;28;20038;-82
2021/03/09 05:21:22;;;;;;;108.38;45.65;;;3.40;99.90;;;3.98;95.54;100797.56;5016032;28;20041;-80
2021/03/09 05:23:48;;;;;;;105.05;43.30;;;3.40;99.90;;;3.99;96.28;100785.34;5014751;28;20061;-83
2021/03/09 05:26:16;;;;;;;101.18;44.72;;;3.40;99.90;;;3.97;95.46;100788.44;5015961;28;20034;-81
2021/03/09 05:28:42;;;;;;;101.28;43.92;;;3.50;99.90;;;3.99;95.91;100791.69;5015672;28;20033;-80
2021/03/09 05:31:08;;;;;;;107.68;45.47;;;3.40;99.90;;;3.99;95.73;100782.59;5015145;28;20030;-81
2021/03/09 05:33:34;;;;;;;102.13;45.17;;;3.40;99.90;;;4.05;95.25;100784.09;5015216;28;20423;-81
2021/03/09 05:36:00;;;;;;;97.07;45.28;;;3.40;99.90;;;3.99;95.33;100777.88;5015126;28;20033;-82
2021/03/09 05:38:26;;;;;;;103.55;47.60;;;3.40;99.90;;;4.02;95.39;100780.03;5014986;28;20042;-81
2021/03/09 05:40:52;;;;;;;106.28;45.17;;;3.50;99.90;;;4.09;95.32;100790.66;5016386;28;20037;-80
2021/03/09 05:43:18;;;;;;;105.82;45.28;;;3.40;99.90;;;4.08;95.14;100784.31;5014114;28;20026;-80
2021/03/09 05:45:45;;;;;;;109.80;48.50;;;3.40;99.90;;;3.96;95.83;100778.50;5022792;28;20091;-79
2021/03/09 05:48:12;;;;;;;105.72;49.88;;;3.40;99.90;;;4.03;96.02;100776.13;5016123;28;20045;-82
2021/03/09 05:50:38;;;;;;;107.78;49.80;;;3.40;99.90;;;4.05;95.92;100782.16;5014793;28;20065;-81
2021/03/09 05:53:05;;;;;;;106.53;45.58;;;3.40;99.90;;;4.01;95.68;100774.81;5014054;28;20026;-83
2021/03/09 05:55:31;;;;;;;101.10;46.10;;;3.40;99.90;;;4.09;95.91;100772.13;5037095;28;20382;-80
2021/03/09 05:57:57;;;;;;;102.95;45.83;;;3.50;99.90;;;3.99;96.27;100774.31;5032548;28;20378;-82
2021/03/09 06:00:25;;;;;;;108.03;48.03;;;3.40;99.90;;;3.89;97.07;100767.06;5034150;28;20029;-81
2021/03/09 06:02:52;;;;;;;112.32;48.45;;;3.40;99.90;;;3.94;96.80;100768.91;5034536;28;20033;-80
2021/03/09 06:05:19;;;;;;;110.88;50.03;;;3.40;99.90;;;4.01;96.24;100767.34;5035288;28;20148;-78
2021/03/09 06:07:46;;;;;;;113.43;48.03;;;3.40;99.90;;;3.82;96.58;100766.66;5026318;28;20034;-79
2021/03/09 06:10:25;;;;;;;106.72;48.08;;;3.40;99.90;;;3.96;97.05;100770.22;5015882;28;20101;-79
2021/03/09 06:12:52;;;;;;;110.88;46.65;;;3.40;99.90;;;3.98;96.80;100775.44;5014980;28;20030;-78
2021/03/09 06:15:20;;;;;;;103.03;46.08;;;3.40;99.90;;;3.99;96.06;100761.31;5016319;28;20053;-80
2021/03/09 06:18:02;;;;;;;104.80;47.90;;;3.40;99.90;;;3.95;96.05;100765.03;5015495;28;20022;-80
2021/03/09 06:20:31;;;;;;;105.10;46.95;;;3.40;99.90;;;3.95;96.06;100762.25;5014011;28;20626;-79
2021/03/09 06:23:01;;;;;;;105.15;44.28;;;3.40;99.90;;;3.90;95.44;100752.13;5015525;28;20060;-79
2021/03/09 06:25:39;;;;;;;100.68;46.28;;;3.40;99.90;;;3.92;95.99;100758.16;5014269;28;20481;-79
2021/03/09 06:28:09;;;;;;;90.47;41.10;;;3.40;99.90;;;3.96;95.55;100750.06;5015567;28;20033;-78
2021/03/09 06:30:39;;;;;;;89.50;42.88;;;3.40;99.90;;;3.92;95.79;100758.16;5015771;28;20113;-80
2021/03/09 06:33:07;;;;;;;89.65;41.17;;;3.40;99.90;;;3.86;95.50;100747.50;5015470;28;20375;-81
2021/03/09 06:35:43;;;;;;;90.07;40.10;;;3.40;99.90;;;3.79;95.77;100756.22;5016203;28;20041;-80
2021/03/09 06:38:23;;;;;;;85.90;41.40;;;3.40;99.90;;;3.93;95.26;100748.75;5016142;28;20022;-81
2021/03/09 06:41:16;;;;;;;85.43;39.72;;;3.40;99.90;;;3.90;95.58;100749.38;5014258;28;20029;-82
2021/03/09 06:44:03;;;;;;;87.57;41.33;;;3.40;99.90;;;3.80;95.58;100746.00;5013609;28;20117;-82
2021/03/09 06:46:30;;;;;;;87.35;40.15;;;3.30;99.90;;;3.81;95.63;100737.41;5013762;28;20025;-81
2021/03/09 06:49:03;;;;;;;85.70;42.17;;;3.30;99.90;;;3.77;95.32;100743.88;5014769;28;20026;-81
2021/03/09 06:51:38;;;;;;;87.13;41.45;;;3.30;99.90;;;3.91;94.93;100745.47;5013837;28;20490;-81
2021/03/09 06:54:12;;;;;;;87.80;42.20;;;3.40;99.90;;;4.01;94.58;100736.13;5013907;28;20077;-80
2021/03/09 06:56:42;;;;;;;85.72;40.22;;;3.40;99.90;;;3.80;94.94;100740.47;5013666;28;20060;-81
2021/03/09 06:59:32;;;;;;;84.10;41.60;;;3.40;99.90;;;3.91;95.38;100751.00;5012836;28;20104;-82
2021/03/09 07:02:21;;;;;;;89.35;42.97;;;3.40;99.90;;;3.75;95.89;100760.75;5012063;28;20049;-80
2021/03/09 07:04:52;;;;;;;88.68;41.33;;;3.40;99.90;;;3.67;96.00;100754.00;5011734;28;20301;-83
2021/03/09 07:07:35;;;;;;;91.65;41.97;;;3.40;99.90;;;3.72;95.56;100751.13;5021736;28;20037;-83
2021/03/09 07:10:13;;;;;;;84.15;40.28;;;3.40;99.90;;;3.95;95.40;100748.44;5025937;28;20030;-83
2021/03/09 07:12:47;;;;;;;86.47;38.67;;;3.40;99.90;;;3.89;95.75;100750.47;5012532;28;20286;-80
2021/03/09 07:15:20;;;;;;;81.78;37.92;;;3.40;99.90;;;3.89;94.85;100753.25;5012144;28;20026;-80
2021/03/09 07:17:52;;;;;;;76.30;37.45;;;3.50;99.90;;;3.89;94.89;100744.94;5013687;28;20233;-81
2021/03/09 07:20:19;;;;;;;75.80;35.92;;;3.50;99.90;;;3.90;94.80;100743.00;5012070;28;20569;-80
2021/03/09 07:22:47;;;;;;;76.28;35.03;;;3.40;99.90;;;3.97;94.94;100752.53;5013582;28;20092;-80
2021/03/09 07:25:17;;;;;;;75.22;34.20;;;3.40;99.90;;;4.05;94.80;100750.94;5012308;28;20102;-82
2021/03/09 07:28:04;;;;;;;68.35;33.03;;;3.50;99.90;;;3.97;94.69;100754.47;5029071;28;20445;-82
2021/03/09 07:30:40;;;;;;;67.00;30.83;;;3.40;99.90;;;4.00;94.16;100753.84;5012624;28;20034;-81
2021/03/09 07:33:07;;;;;;;74.15;34.00;;;3.50;99.90;;;4.00;94.76;100759.38;5014113;28;20040;-81
2021/03/09 07:35:33;;;;;;;62.80;30.00;;;3.50;99.90;;;3.96;94.52;100753.63;5014430;28;20034;-82
2021/03/09 07:38:00;;;;;;;70.20;31.85;;;3.50;99.90;;;3.97;94.69;100755.28;5014591;28;20064;-81
2021/03/09 07:40:35;;;;;;;64.72;31.73;;;3.50;99.90;;;4.05;94.42;100753.69;5013021;28;20056;-80
2021/03/09 07:43:01;;;;;;;63.67;30.70;;;3.50;99.90;;;3.98;94.89;100754.13;5015267;28;20037;-79
2021/03/09 07:45:33;;;;;;;54.38;27.52;;;3.50;99.90;;;4.20;93.89;100756.13;5013431;28;20475;-81
2021/03/09 07:48:05;;;;;;;58.35;28.08;;;3.60;99.90;;;4.12;94.01;100752.16;5014594;28;20022;-81
2021/03/09 07:50:47;;;;;;;56.30;27.17;;;3.60;99.90;;;4.12;93.90;100751.31;5013259;28;20490;-79
2021/03/09 07:53:18;;;;;;;54.83;27.10;;;3.60;99.90;;;4.12;94.40;100765.97;5014407;28;20057;-80
2021/03/09 07:55:51;;;;;;;48.97;26.70;;;3.50;99.90;;;4.18;93.70;100748.13;5013139;28;20026;-79
2021/03/09 07:58:27;;;;;;;51.75;27.05;;;3.60;99.90;;;4.23;93.56;100748.03;5013778;28;20048;-83
2021/03/09 08:01:09;;;;;;;54.58;27.38;;;3.60;99.90;;;4.24;93.23;100754.34;5013328;28;20350;-81
2021/03/09 08:03:46;;;;;;;52.22;26.88;;;3.60;99.90;;;4.21;93.65;100749.44;5014414;28;20363;-80
2021/03/09 08:06:17;;;;;;;53.80;25.98;;;3.60;99.90;;;4.21;93.19;100752.22;5012764;28;20406;-81
2021/03/09 08:08:55;;;;;;;57.63;27.05;;;3.60;99.90;;;4.20;93.84;100737.59;5014124;28;20490;-80
2021/03/09 08:11:23;;;;;;;51.10;26.08;;;3.60;99.90;;;4.18;94.00;100745.38;5048847;23;20042;-84
2021/03/09 08:13:56;;;;;;;51.90;26.35;;;3.60;99.90;;;4.28;93.76;100746.25;5019413;28;20041;-83
2021/03/09 08:16:26;;;;;;;46.97;26.42;;;3.60;99.90;;;4.20;93.39;100743.13;5007116;28;20057;-83
2021/03/09 08:18:54;;;;;;;49.38;26.27;;;3.70;99.90;;;4.19;93.17;100747.00;5018678;28;20018;-80
2021/03/09 08:21:46;;;;;;;49.85;25.35;;;3.70;99.90;;;4.17;92.31;100737.41;5032825;28;20038;-83
2021/03/09 08:24:14;;;;;;;50.67;25.38;;;3.70;99.90;;;4.28;93.27;100743.47;5021335;28;20022;-83
2021/03/09 08:26:39;;;;;;;46.42;24.70;;;3.80;99.90;;;4.22;93.33;100742.78;5036876;28;20037;-83
2021/03/09 08:29:32;;;;;;;48.70;27.02;;;3.80;99.90;;;4.21;93.10;100741.97;5036717;28;20025;-82
2021/03/09 08:32:23;;;;;;;50.35;26.63;;;3.70;99.90;;;4.12;93.75;100741.09;5021610;28;20022;-81
2021/03/09 08:35:11;;;;;;;57.63;28.38;;;3.70;99.90;;;4.19;93.97;100740.66;5026105;28;20088;-82
2021/03/09 08:37:44;;;;;;;52.20;27.10;;;3.70;99.90;;;4.15;93.45;100736.88;5043294;28;20093;-83
2021/03/09 08:40:14;;;;;;;55.83;28.40;;;3.70;99.90;;;4.06;93.80;100736.00;5026613;28;20085;-81
2021/03/09 08:43:01;;;;;;;55.63;29.17;;;3.60;99.90;;;4.23;93.26;100736.97;5026706;28;20081;-85
2021/03/09 08:45:54;;;;;;;56.22;30.00;;;3.70;99.90;;;4.19;94.96;100743.44;5044484;28;20392;-82
2021/03/09 08:48:51;;;;;;;50.83;28.13;;;3.70;99.90;;;4.23;94.33;100733.38;5045541;28;20463;-82
2021/03/09 08:51:56;;;;;;;57.63;29.52;;;3.70;99.90;;;4.24;94.43;100744.13;5045546;28;20026;-81
2021/03/09 08:54:39;;;;;;;55.42;30.27;;;3.70;99.90;;;4.19;93.97;100735.94;5005826;28;20030;-83
2021/03/09 08:57:13;;;;;;;65.47;31.77;;;3.70;99.90;;;4.26;94.47;100738.28;5004673;28;20026;-82
2021/03/09 08:59:43;;;;;;;64.20;32.15;;;3.70;99.90;;;4.24;94.27;100746.06;5021959;28;20041;-83
2021/03/09 09:02:19;;;;;;;59.63;29.83;;;3.70;99.90;;;4.21;94.42;100739.22;5024158;28;20029;-83
2021/03/09 09:05:06;;;;;;;61.60;30.88;;;3.70;99.90;;;4.24;94.53;100732.22;5023468;28;20080;-81
2021/03/09 09:07:39;;;;;;;63.38;31.95;;;3.70;99.90;;;4.26;95.17;100738.28;5022665;28;20029;-83
2021/03/09 09:10:23;;;;;;;58.17;29.90;;;3.80;99.90;;;4.24;94.30;100733.06;5023257;28;20060;-83
2021/03/09 09:12:56;;;;;;;57.67;29.23;;;3.80;99.90;;;4.48;93.84;100729.16;5023008;28;20029;-81
2021/03/09 09:15:28;;;;;;;53.75;28.75;;;3.80;99.90;;;4.46;93.39;100732.25;5022964;28;20101;-82
2021/03/09 09:18:09;;;;;;;61.53;30.52;;;3.90;99.90;;;4.55;93.31;100724.00;5021923;28;20522;-85
2021/03/09 09:20:47;;;;;;;54.80;28.90;;;4.00;99.90;;;4.66;93.42;100717.06;5039960;28;20029;-82
2021/03/09 09:23:26;;;;;;;51.65;28.02;;;4.10;99.90;;;4.82;92.96;100725.78;5041065;28;20038;-84
2021/03/09 09:25:56;;;;;;;48.30;26.95;;;4.20;99.90;;;4.85;92.09;100716.84;5026512;28;20076;-80
2021/03/09 09:28:35;;;;;;;48.33;26.52;;;4.30;99.90;;;4.87;91.97;100722.88;5025590;28;20537;-80
2021/03/09 09:31:17;;;;;;;45.47;26.05;;;4.30;99.90;;;4.87;91.66;100723.69;5042802;28;20028;-84
2021/03/09 09:33:54;;;;;;;46.47;25.45;;;4.40;99.90;;;4.84;91.31;100718.78;5043570;28;20030;-81
2021/03/09 09:36:25;;;;;;;45.15;24.80;;;4.40;99.90;;;4.89;92.27;100723.34;5042068;28;20065;-82
2021/03/09 09:38:53;;;;;;;43.53;25.30;;;4.40;99.90;;;4.83;92.16;100721.88;5029962;28;20049;-83
2021/03/09 09:41:21;;;;;;;43.00;23.38;;;4.30;99.90;;;4.63;91.92;100718.50;5027692;28;20081;-82
2021/03/09 09:43:47;;;;;;;43.25;22.95;;;4.30;99.90;;;4.58;92.11;100724.19;5024391;28;20037;-85
2021/03/09 09:46:31;;;;;;;44.38;24.38;;;4.20;99.90;;;4.63;92.20;100718.50;5023696;28;20370;-84
2021/03/09 09:48:58;;;;;;;39.05;22.20;;;4.20;99.90;;;4.60;92.64;100716.38;5022371;28;20025;-84
2021/03/09 09:51:26;;;;;;;36.35;20.00;;;4.10;99.90;;;4.57;91.23;100722.53;5021232;28;20026;-84
2021/03/09 09:53:54;;;;;;;34.22;19.85;;;4.10;99.90;;;4.50;92.09;100713.06;5021018;28;20076;-83
2021/03/09 09:56:20;;;;;;;39.95;22.63;;;4.10;99.90;;;4.62;92.18;100725.16;5020005;28;20026;-81
2021/03/09 09:58:50;;;;;;;45.10;23.50;;;4.10;99.90;;;4.57;92.74;100717.00;5036088;28;20034;-82
2021/03/09 10:01:42;;;;;;;39.58;20.77;;;4.10;99.90;;;4.69;92.15;100716.41;5020443;28;20063;-81
2021/03/09 10:04:10;;;;;;;37.88;21.00;;;4.10;99.90;;;4.66;92.71;100717.06;5036668;28;20041;-84
2021/03/09 10:06:48;;;;;;;38.28;21.35;;;4.20;99.90;;;4.76;92.10;100719.56;5020808;28;20068;-83
2021/03/09 10:09:22;;;;;;;41.20;21.20;;;4.20;99.90;;;4.73;93.48;100715.47;5000796;28;20030;-85
2021/03/09 10:11:54;;;;;;;38.45;20.70;;;4.20;99.90;;;4.59;92.95;100723.03;5001167;28;20062;-85
2021/03/09 10:14:33;;;;;;;36.60;21.75;;;4.20;99.90;;;4.69;92.66;100716.41;5001386;28;20034;-85
2021/03/09 10:17:02;;;;;;;35.47;20.33;;;4.20;99.90;;;4.54;93.19;100711.28;4999276;28;20501;-81
2021/03/09 10:19:39;;;;;;;32.47;18.80;;;4.10;99.90;;;4.69;92.67;100711.69;5000326;28;20029;-84
2021/03/09 10:22:25;;;;;;;34.90;19.55;;;4.20;99.90;;;4.77;93.08;100732.25;5021880;28;20029;-83
2021/03/09 10:24:52;;;;;;;36.97;20.27;;;4.20;99.90;;;4.74;92.30;100725.41;5023682;28;20050;-83
2021/03/09 10:27:28;;;;;;;34.70;20.60;;;4.20;99.90;;;4.87;92.29;100729.22;5034702;28;20045;-83
2021/03/09 10:29:57;;;;;;;33.85;19.48;;;4.30;99.90;;;4.72;92.99;100722.13;5018994;28;20033;-83